This is the latest recevied weather packets stored in our database for station/object EA7URS-13. If no packets are shown the sender has not sent any weather packets the latest 10 day(s).
| Time | Temp. | Humidity | Pressure | Rain* | Wind** | Luminosity | Snow |
|---|---|---|---|---|---|---|---|
| 1788000714 | 27.78° C | 38% | 1012.4 hPa | 0 mm | - | 120 W/m² | - |
| 1788000413 | 27.78° C | 39% | 1012.5 hPa | 0 mm | - | 56 W/m² | - |
| 1788000111 | 27.78° C | 39% | 1012.5 hPa | 0 mm | - | 56 W/m² | - |
| 1787999811 | 27.78° C | 39% | 1012.4 hPa | 0 mm | - | 616 W/m² | - |
| 1787999510 | 27.78° C | 39% | 1012.4 hPa | 0 mm | - | 616 W/m² | - |
| 1787999209 | 26.67° C | 42% | 1012.7 hPa | 0 mm | - | 598 W/m² | - |
| 1787998907 | 26.67° C | 42% | 1012.7 hPa | 0 mm | - | 598 W/m² | - |
| 1787998606 | 26.11° C | 44% | 1012.5 hPa | 0 mm | - | 579 W/m² | - |
| 1787998306 | 26.11° C | 44% | 1012.5 hPa | 0 mm | - | 579 W/m² | - |
| 1787998004 | 26.11° C | 45% | 1012.6 hPa | 0 mm | - | 558 W/m² | - |
| 1787997703 | 26.11° C | 45% | 1012.6 hPa | 0 mm | - | 558 W/m² | - |
| 1787997402 | 26.11° C | 47% | 1012.7 hPa | 0 mm | - | 537 W/m² | - |
| 1787997101 | 26.11° C | 47% | 1012.7 hPa | 0 mm | - | 537 W/m² | - |
| 1787996800 | 25.56° C | 46% | 1012.7 hPa | 0 mm | - | 516 W/m² | - |
| 1787996499 | 25.56° C | 46% | 1012.7 hPa | 0 mm | - | 516 W/m² | - |
| 1787996198 | 25° C | 47% | 1012.6 hPa | 0 mm | - | 493 W/m² | - |
| 1787995897 | 25° C | 47% | 1012.6 hPa | 0 mm | - | 493 W/m² | - |
| 1787995596 | 25° C | 47% | 1012.7 hPa | 0 mm | - | 474 W/m² | - |
| 1787995295 | 25° C | 47% | 1012.7 hPa | 0 mm | - | 474 W/m² | - |
| 1787994993 | 23.89° C | 49% | 1012.8 hPa | 0 mm | - | 385 W/m² | - |
| 1787994692 | 23.89° C | 49% | 1012.8 hPa | 0 mm | - | 385 W/m² | - |
| 1787994392 | 23.89° C | 50% | 1012.7 hPa | 0 mm | - | 455 W/m² | - |
| 1787994091 | 23.89° C | 50% | 1012.7 hPa | 0 mm | - | 455 W/m² | - |
| 1787993790 | 0° C | 1% | 1012.4 hPa | 0 mm | - | 0 W/m² | - |
| 1787993488 | 0° C | 1% | 1012.4 hPa | 0 mm | - | 0 W/m² | - |
* Rain latest hour (hover to see other rain measurements)
** Current wind speed in m/s (hover to see current wind gust speed)